Time;durP1;ratioP1;P1;durP2;ratioP2;P2;SDS_P1;SDS_P2;PMS_P1;PMS_P2;Temp;Humidity;BMP_temperature;BMP_pressure;BME280_temperature;BME280_humidity;BME280_pressure;Samples;Min_cycle;Max_cycle;Signal;HPM_P1;HPM_P2
2022/04/12 00:00:05;;;;;;;;;17.00;16.00;;;;;21.32;42.33;101246.04;110269;1264;19742;-56
2022/04/12 00:02:52;;;;;;;;;17.33;15.33;;;;;21.32;42.38;101243.71;110262;1265;18818;-54
2022/04/12 00:05:20;;;;;;;;;14.67;14.00;;;;;21.33;42.35;101244.58;110251;1265;19069;-53
2022/04/12 00:07:47;;;;;;;;;17.33;13.00;;;;;21.33;42.32;101248.53;110240;1265;19478;-57
2022/04/12 00:10:14;;;;;;;;;13.67;13.00;;;;;21.32;42.39;101243.75;110309;1265;21890;-54
2022/04/12 00:12:42;;;;;;;;;14.00;13.00;;;;;21.31;42.27;101243.52;110324;1264;18832;-53
2022/04/12 00:15:09;;;;;;;;;16.00;14.00;;;;;21.33;42.34;101248.02;110263;1265;19523;-54
2022/04/12 00:20:22;;;;;;;;;17.00;15.33;;;;;21.34;42.24;101249.88;110257;1264;18768;-55
2022/04/12 00:22:49;;;;;;;;;18.00;14.00;;;;;21.33;42.05;101254.36;110282;1264;22268;-54
2022/04/12 00:25:18;;;;;;;;;14.67;13.00;;;;;21.31;42.19;101253.85;110255;1265;18679;-56
2022/04/12 00:27:46;;;;;;;;;16.67;16.00;;;;;21.30;42.13;101251.77;110228;1264;19139;-56
2022/04/12 00:30:13;;;;;;;;;17.00;14.00;;;;;21.32;42.09;101250.84;110282;1264;19551;-55
2022/04/12 00:32:40;;;;;;;;;20.00;14.00;;;;;21.31;42.37;101251.79;110211;1264;21153;-59
2022/04/12 00:35:08;;;;;;;;;13.67;13.00;;;;;21.32;42.19;101256.22;110287;1264;22167;-57
2022/04/12 00:37:35;;;;;;;;;14.00;13.67;;;;;21.31;42.27;101256.91;110285;1264;19703;-56
2022/04/12 00:40:03;;;;;;;;;14.00;13.00;;;;;21.31;42.36;101261.83;110314;1264;22723;-54
2022/04/12 00:42:31;;;;;;;;;13.00;13.00;;;;;21.31;42.21;101262.70;110238;1264;22287;-56
2022/04/12 00:44:59;;;;;;;;;14.00;13.00;;;;;21.32;42.29;101259.70;110255;1264;19697;-55
2022/04/12 00:47:26;;;;;;;;;20.00;16.00;;;;;21.31;42.03;101256.91;110266;1264;18766;-55
2022/04/12 00:49:53;;;;;;;;;13.33;12.67;;;;;21.31;42.20;101259.80;110283;1265;18993;-56
2022/04/12 00:52:21;;;;;;;;;18.50;17.00;;;;;21.32;42.04;101260.42;110190;1264;19931;-56
2022/04/12 00:54:49;;;;;;;;;17.33;14.67;;;;;21.31;41.85;101263.45;110295;1264;22968;-54
2022/04/12 00:57:16;;;;;;;;;13.00;13.00;;;;;21.31;42.08;101260.17;110209;1265;22094;-56
2022/04/12 00:59:43;;;;;;;;;20.00;16.33;;;;;21.32;42.15;101270.27;110080;1264;19891;-52
2022/04/12 01:02:11;;;;;;;;;17.00;14.00;;;;;21.32;42.16;101265.19;110217;1265;18896;-59
2022/04/12 01:04:38;;;;;;;;;13.33;12.00;;;;;21.31;42.18;101264.69;110259;1264;18761;-58
2022/04/12 01:07:06;;;;;;;;;18.67;14.67;;;;;21.31;42.18;101265.27;110313;1265;22244;-54
2022/04/12 01:09:33;;;;;;;;;15.00;13.50;;;;;21.31;42.26;101263.66;110305;1264;22735;-56
2022/04/12 01:12:08;;;;;;;;;13.00;13.00;;;;;21.33;42.04;101271.42;110290;1264;19183;-52
2022/04/12 01:14:36;;;;;;;;;14.67;13.00;;;;;21.32;42.18;101276.64;110260;1264;21978;-56
2022/04/12 01:17:03;;;;;;;;;14.00;14.00;;;;;21.30;42.08;101274.05;110248;1265;18766;-54
2022/04/12 01:19:30;;;;;;;;;17.00;14.00;;;;;21.30;42.03;101273.00;110266;1264;18859;-56
2022/04/12 01:22:00;;;;;;;;;15.33;14.00;;;;;21.30;42.01;101272.36;110341;1264;19499;-55
2022/04/12 01:24:28;;;;;;;;;13.00;13.00;;;;;21.30;42.15;101276.52;110240;1264;22441;-54
2022/04/12 01:26:55;;;;;;;;;16.00;14.00;;;;;21.29;42.06;101275.17;110285;1265;18794;-56
2022/04/12 01:29:22;;;;;;;;;15.33;13.00;;;;;21.29;42.12;101271.33;110248;1264;19747;-57
2022/04/12 01:31:50;;;;;;;;;12.67;10.67;;;;;21.28;42.05;101275.98;110267;1264;19136;-52
2022/04/12 01:34:17;;;;;;;;;17.00;14.00;;;;;21.29;42.04;101280.24;110209;1264;19103;-61
2022/04/12 01:36:45;;;;;;;;;15.33;14.00;;;;;21.29;42.05;101280.73;110316;1265;22125;-56
2022/04/12 01:39:12;;;;;;;;;19.33;15.33;;;;;21.29;41.88;101283.05;110270;1264;19144;-56
2022/04/12 01:41:39;;;;;;;;;14.00;13.67;;;;;21.29;41.95;101284.06;110305;1264;18828;-57
2022/04/12 01:44:07;;;;;;;;;16.00;13.00;;;;;21.28;42.00;101284.45;110313;1264;22234;-54
2022/04/12 01:46:34;;;;;;;;;16.00;15.33;;;;;21.30;41.99;101286.14;110286;1264;18771;-55
2022/04/12 01:49:01;;;;;;;;;17.00;15.00;;;;;21.29;42.04;101283.19;110326;1264;21791;-55
2022/04/12 01:51:29;;;;;;;;;17.33;16.33;;;;;21.30;41.87;101281.59;110280;1264;20727;-56
2022/04/12 01:53:56;;;;;;;;;14.00;14.00;;;;;21.29;42.09;101286.02;110270;1264;19086;-56
2022/04/12 01:56:24;;;;;;;;;16.00;15.33;;;;;21.30;42.03;101284.81;110281;1265;19157;-53
2022/04/12 01:58:51;;;;;;;;;13.00;13.00;;;;;21.30;42.03;101285.41;110228;1264;22463;-55
2022/04/12 02:01:19;;;;;;;;;14.00;13.67;;;;;21.30;41.86;101288.34;110289;1264;18758;-57
2022/04/12 02:03:47;;;;;;;;;14.00;13.00;;;;;21.29;41.91;101290.17;110290;1264;22310;-53
2022/04/12 02:06:14;;;;;;;;;14.00;13.00;;;;;21.29;41.85;101292.41;110285;1264;19569;-56
2022/04/12 02:08:43;;;;;;;;;18.00;17.00;;;;;21.30;41.93;101297.27;110208;1264;18906;-57
2022/04/12 02:11:11;;;;;;;;;17.00;16.00;;;;;21.27;42.04;101295.08;110287;1264;19189;-56
2022/04/12 02:13:38;;;;;;;;;17.00;16.00;;;;;21.27;42.22;101294.65;110279;1264;22226;-55
2022/04/12 02:16:05;;;;;;;;;16.33;14.67;;;;;21.28;42.11;101300.70;110314;1264;18929;-52
2022/04/12 02:18:33;;;;;;;;;14.00;14.00;;;;;21.27;41.99;101298.41;110286;1264;31784;-56
2022/04/12 02:21:00;;;;;;;;;12.00;12.00;;;;;21.28;42.03;101301.64;110262;1265;19541;-55
2022/04/12 02:23:27;;;;;;;;;16.00;13.67;;;;;21.27;42.03;101299.46;110265;1264;19188;-55
2022/04/12 02:25:55;;;;;;;;;17.33;16.00;;;;;21.27;41.96;101301.02;110270;1264;22283;-55
2022/04/12 02:28:22;;;;;;;;;16.67;14.00;;;;;21.27;41.95;101307.70;110278;1264;19534;-56
2022/04/12 02:30:49;;;;;;;;;15.00;13.50;;;;;21.27;41.85;101300.45;110265;1264;23050;-57
2022/04/12 02:33:16;;;;;;;;;16.00;13.50;;;;;21.26;41.82;101306.11;110245;1264;18809;-55
2022/04/12 02:35:44;;;;;;;;;16.00;14.67;;;;;21.26;41.79;101308.33;110239;1264;22110;-56
2022/04/12 02:38:13;;;;;;;;;12.67;11.67;;;;;21.25;41.72;101309.52;110276;1264;18756;-56
2022/04/12 02:40:40;;;;;;;;;14.00;14.00;;;;;21.26;41.91;101313.77;110268;1264;22669;-56
2022/04/12 02:43:08;;;;;;;;;14.00;13.00;;;;;21.25;41.78;101312.05;110283;1265;20072;-54
2022/04/12 02:45:35;;;;;;;;;14.00;14.00;;;;;21.25;41.77;101314.77;110244;1264;18757;-57
2022/04/12 02:48:02;;;;;;;;;10.67;10.00;;;;;21.25;41.72;101313.52;110298;1264;19477;-56
2022/04/12 02:50:30;;;;;;;;;13.00;12.33;;;;;21.26;41.67;101313.81;110270;1264;19506;-54
2022/04/12 02:52:57;;;;;;;;;12.33;12.00;;;;;21.26;41.85;101314.70;110284;1264;18749;-57
2022/04/12 02:55:24;;;;;;;;;15.00;13.00;;;;;21.26;41.78;101319.74;110266;1265;22754;-56
2022/04/12 02:57:52;;;;;;;;;16.50;13.50;;;;;21.27;41.78;101319.33;110349;1264;19531;-54
2022/04/12 03:00:19;;;;;;;;;13.67;13.00;;;;;21.25;41.89;101315.86;110222;1264;18967;-57
2022/04/12 03:02:46;;;;;;;;;17.00;14.00;;;;;21.24;41.92;101318.38;110281;1264;18828;-57
2022/04/12 03:05:14;;;;;;;;;13.33;13.00;;;;;21.23;41.99;101318.28;110247;1262;19417;-54
2022/04/12 03:07:41;;;;;;;;;18.33;16.00;;;;;21.25;42.01;101322.48;110293;1265;18759;-57
2022/04/12 03:10:08;;;;;;;;;16.00;14.00;;;;;21.25;41.78;101320.98;110336;1265;23085;-53
2022/04/12 03:12:35;;;;;;;;;17.33;14.67;;;;;21.24;41.86;101322.16;110252;1265;19974;-56
2022/04/12 03:15:03;;;;;;;;;14.00;13.00;;;;;21.25;41.60;101322.64;110263;1264;22751;-56
2022/04/12 03:17:30;;;;;;;;;16.00;13.00;;;;;21.25;41.81;101330.98;110246;1265;19280;-55
2022/04/12 03:19:57;;;;;;;;;13.00;13.00;;;;;21.25;41.73;101334.40;110207;1264;19474;-52
2022/04/12 03:22:25;;;;;;;;;12.67;12.67;;;;;21.24;41.57;101334.32;110240;1265;18703;-55
2022/04/12 03:24:52;;;;;;;;;13.67;13.00;;;;;21.26;41.77;101339.48;110320;1264;18766;-56
2022/04/12 03:27:19;;;;;;;;;17.00;14.33;;;;;21.23;41.65;101334.83;110132;1264;22776;-52
2022/04/12 03:29:47;;;;;;;;;14.00;12.00;;;;;21.23;41.90;101339.40;110237;1264;19655;-53
2022/04/12 03:32:14;;;;;;;;;20.00;14.00;;;;;21.22;41.78;101338.71;110156;1264;21231;-56
2022/04/12 03:34:43;;;;;;;;;14.67;13.67;;;;;21.23;41.82;101338.14;110219;1265;19700;-54
2022/04/12 03:37:10;;;;;;;;;16.00;14.00;;;;;21.22;41.61;101334.79;110260;1264;19161;-53
2022/04/12 03:39:37;;;;;;;;;16.00;13.00;;;;;21.22;41.75;101334.93;110244;1264;22824;-55
2022/04/12 03:42:05;;;;;;;;;14.33;14.00;;;;;21.21;41.90;101333.39;110268;1264;19573;-52
2022/04/12 03:44:32;;;;;;;;;14.00;13.00;;;;;21.20;41.75;101334.45;110227;1265;18743;-51
2022/04/12 03:47:00;;;;;;;;;14.00;12.00;;;;;21.21;41.66;101338.00;110210;1264;22077;-54
2022/04/12 03:49:27;;;;;;;;;16.00;14.00;;;;;21.21;41.69;101338.20;110288;1265;19552;-53
2022/04/12 03:51:54;;;;;;;;;12.33;12.33;;;;;21.20;41.86;101342.42;110306;1264;18876;-52
2022/04/12 03:54:22;;;;;;;;;14.00;13.00;;;;;21.21;41.84;101345.29;110241;1264;18871;-54
2022/04/12 03:56:49;;;;;;;;;10.67;10.00;;;;;21.20;41.63;101348.05;110224;1265;20772;-52
2022/04/12 03:59:16;;;;;;;;;13.33;12.00;;;;;21.20;41.65;101348.43;110268;1264;18733;-51
2022/04/12 04:01:44;;;;;;;;;12.33;12.33;;;;;21.20;41.75;101351.86;110253;1264;18806;-56
2022/04/12 04:04:12;;;;;;;;;12.00;12.00;;;;;21.21;41.71;101355.23;110273;1264;19515;-54
2022/04/12 04:06:39;;;;;;;;;12.00;11.33;;;;;21.20;41.51;101351.86;110257;1264;18884;-54
2022/04/12 04:09:06;;;;;;;;;14.33;13.00;;;;;21.20;41.68;101354.65;110267;1264;18821;-53
2022/04/12 04:11:38;;;;;;;;;12.67;12.67;;;;;21.20;41.61;101354.96;110262;1264;23768;-55
2022/04/12 04:14:06;;;;;;;;;16.33;14.33;;;;;21.20;41.68;101355.13;110309;1264;19099;-54
2022/04/12 04:16:34;;;;;;;;;15.67;13.33;;;;;21.20;41.69;101356.84;110275;1265;18897;-57
2022/04/12 04:19:01;;;;;;;;;15.00;13.00;;;;;21.20;41.44;101358.41;110297;1265;19465;-54
2022/04/12 04:21:28;;;;;;;;;13.00;13.00;;;;;21.20;41.30;101355.68;110295;1264;18717;-55
2022/04/12 04:23:56;;;;;;;;;13.00;12.00;;;;;21.20;41.56;101357.02;110295;1264;18882;-55
2022/04/12 04:26:23;;;;;;;;;14.67;13.67;;;;;21.21;41.41;101361.40;110270;1264;19669;-58
2022/04/12 04:28:51;;;;;;;;;16.67;13.00;;;;;21.21;41.62;101361.98;110196;1265;18685;-52
2022/04/12 04:31:18;;;;;;;;;15.33;13.00;;;;;21.20;41.60;101361.91;110348;1264;19053;-55
2022/04/12 04:33:46;;;;;;;;;13.67;13.00;;;;;21.20;41.54;101363.55;110280;1264;22233;-54
2022/04/12 04:36:13;;;;;;;;;14.00;14.00;;;;;21.20;41.63;101366.11;110304;1265;18953;-57
2022/04/12 04:38:41;;;;;;;;;14.00;13.00;;;;;21.19;41.59;101370.54;110289;1264;22731;-53
2022/04/12 04:41:08;;;;;;;;;17.00;16.00;;;;;21.20;41.32;101378.45;110275;1264;19545;-54
2022/04/12 04:43:36;;;;;;;;;15.00;14.00;;;;;21.19;41.55;101379.81;110302;1265;19819;-56
2022/04/12 04:46:03;;;;;;;;;14.33;13.00;;;;;21.20;41.47;101376.67;110346;1264;18747;-57
2022/04/12 04:48:30;;;;;;;;;14.00;14.00;;;;;21.19;41.54;101380.70;110260;1264;19483;-55
2022/04/12 04:50:58;;;;;;;;;10.67;10.67;;;;;21.18;41.49;101382.26;110257;1264;19687;-53
2022/04/12 04:53:25;;;;;;;;;14.00;13.00;;;;;21.19;41.52;101385.45;110268;1265;19718;-55
2022/04/12 04:55:52;;;;;;;;;17.00;12.00;;;;;21.20;41.50;101389.18;110251;1265;22683;-56
2022/04/12 04:58:20;;;;;;;;;12.67;12.00;;;;;21.20;41.49;101389.69;110306;1265;18747;-58
2022/04/12 05:00:47;;;;;;;;;14.50;13.50;;;;;21.22;41.53;101399.69;110202;1265;19199;-55
2022/04/12 05:03:14;;;;;;;;;14.00;14.00;;;;;21.21;41.35;101397.23;110257;1264;20892;-55
2022/04/12 05:05:42;;;;;;;;;11.00;10.00;;;;;21.22;41.25;101404.96;110278;1264;18973;-55
2022/04/12 05:08:09;;;;;;;;;16.00;13.00;;;;;21.21;41.34;101404.83;110291;1264;19131;-53
2022/04/12 05:10:37;;;;;;;;;14.67;14.00;;;;;21.24;41.39;101414.90;110233;1264;19494;-55
2022/04/12 05:13:04;;;;;;;;;10.00;10.00;;;;;21.26;41.27;101418.12;110326;1264;18868;-54
2022/04/12 05:15:32;;;;;;;;;13.00;12.00;;;;;21.27;41.27;101419.30;110267;1264;18966;-55
2022/04/12 05:17:59;;;;;;;;;16.00;16.00;;;;;21.28;41.15;101424.05;110271;1264;19583;-53
2022/04/12 05:20:26;;;;;;;;;15.00;13.00;;;;;21.30;41.19;101425.02;110202;1264;18696;-53
2022/04/12 05:22:54;;;;;;;;;13.50;13.00;;;;;21.30;41.19;101425.48;110274;1264;22777;-55
2022/04/12 05:25:21;;;;;;;;;13.33;12.00;;;;;21.32;41.20;101434.17;110340;1264;20069;-56
2022/04/12 05:27:49;;;;;;;;;14.00;12.33;;;;;21.34;41.02;101435.13;110281;1265;22768;-56
2022/04/12 05:30:17;;;;;;;;;13.00;13.00;;;;;21.36;41.18;101438.17;110266;1264;18867;-57
2022/04/12 05:32:44;;;;;;;;;13.00;13.00;;;;;21.38;41.11;101437.10;110292;1264;19816;-55
2022/04/12 05:35:12;;;;;;;;;12.00;12.00;;;;;21.39;40.99;101444.09;110214;1264;18844;-60
2022/04/12 05:37:39;;;;;;;;;16.00;13.00;;;;;21.40;41.14;101445.43;110219;1264;19095;-57
2022/04/12 05:40:07;;;;;;;;;12.00;11.00;;;;;21.43;41.04;101444.19;110278;1264;23952;-55
2022/04/12 05:42:34;;;;;;;;;13.33;10.67;;;;;21.44;41.09;101446.41;110207;1264;18771;-57
2022/04/12 05:45:01;;;;;;;;;15.33;13.00;;;;;21.46;40.71;101450.36;110238;1264;22704;-55
2022/04/12 05:47:28;;;;;;;;;12.00;12.00;;;;;21.49;40.70;101452.25;110181;1264;19538;-54
2022/04/12 05:49:56;;;;;;;;;13.67;10.00;;;;;21.50;40.69;101452.66;110212;1264;22393;-55
2022/04/12 05:52:23;;;;;;;;;14.00;13.33;;;;;21.53;40.99;101454.14;110266;1265;18822;-54
2022/04/12 05:54:50;;;;;;;;;14.00;13.00;;;;;21.55;40.82;101455.96;110296;1264;19591;-54
2022/04/12 05:57:18;;;;;;;;;13.00;12.67;;;;;21.56;40.98;101455.79;110283;1264;20288;-52
2022/04/12 05:59:45;;;;;;;;;13.33;12.00;;;;;21.60;40.79;101458.67;110216;1264;18752;-54
2022/04/12 06:02:12;;;;;;;;;13.67;12.67;;;;;21.67;40.88;101461.02;110155;1264;22128;-53
2022/04/12 06:04:40;;;;;;;;;15.00;12.00;;;;;21.74;41.26;101458.98;110202;1264;18782;-54
2022/04/12 06:07:07;;;;;;;;;13.00;12.00;;;;;21.80;41.05;101464.33;110265;1264;20418;-55
2022/04/12 06:09:34;;;;;;;;;12.00;11.33;;;;;21.87;41.33;101466.33;110191;1264;20070;-57
2022/04/12 06:12:02;;;;;;;;;12.00;10.50;;;;;21.89;41.12;101464.70;110244;1265;22235;-56
2022/04/12 06:14:30;;;;;;;;;15.00;11.67;;;;;21.87;40.94;101468.45;110205;1264;22695;-56
2022/04/12 06:16:57;;;;;;;;;16.00;13.00;;;;;21.88;41.08;101468.20;109978;1264;365473;-57
2022/04/12 06:19:24;;;;;;;;;14.00;14.00;;;;;21.92;41.26;101460.50;110262;1265;18758;-55
2022/04/12 06:21:52;;;;;;;;;13.67;13.33;;;;;21.98;41.58;101469.11;110269;1262;18875;-54
2022/04/12 06:24:19;;;;;;;;;16.00;15.33;;;;;22.02;41.63;101473.55;110264;1265;22650;-53
2022/04/12 06:26:46;;;;;;;;;11.67;11.67;;;;;22.02;41.87;101475.05;110207;1264;18721;-52
2022/04/12 06:29:14;;;;;;;;;15.00;13.33;;;;;22.11;42.36;101479.50;110223;1265;23091;-55
2022/04/12 06:31:41;;;;;;;;;14.33;14.00;;;;;22.20;42.43;101486.66;110237;1264;19584;-57
2022/04/12 06:34:08;;;;;;;;;15.00;14.67;;;;;22.21;42.72;101487.45;110268;1264;22778;-60
2022/04/12 06:36:36;;;;;;;;;13.67;13.00;;;;;22.24;42.53;101487.49;110255;1264;18965;-53
2022/04/12 06:39:03;;;;;;;;;15.00;14.33;;;;;22.23;42.69;101484.45;110198;1264;19519;-54
2022/04/12 06:41:31;;;;;;;;;15.00;13.67;;;;;22.26;42.59;101485.38;110198;1265;18673;-56
2022/04/12 06:43:58;;;;;;;;;14.00;11.33;;;;;22.26;42.55;101489.70;110256;1264;20306;-59
2022/04/12 06:46:25;;;;;;;;;15.00;14.67;;;;;22.28;42.70;101492.30;110310;1265;19410;-56
2022/04/12 06:48:53;;;;;;;;;16.67;15.00;;;;;22.26;42.72;101493.05;110283;1264;18973;-55
2022/04/12 06:51:26;;;;;;;;;14.00;13.00;;;;;22.26;42.65;101490.45;110257;1265;18817;-60
2022/04/12 06:53:53;;;;;;;;;13.33;13.33;;;;;22.27;42.66;101490.73;110263;1264;20032;-57
2022/04/12 06:56:20;;;;;;;;;17.00;14.00;;;;;22.26;42.92;101487.73;110257;1263;18753;-56
2022/04/12 06:58:48;;;;;;;;;14.00;13.33;;;;;22.27;42.73;101491.95;110245;1264;21189;-57
2022/04/12 07:01:15;;;;;;;;;14.67;13.00;;;;;22.28;42.49;101492.79;110282;1264;22038;-55
2022/04/12 07:03:44;;;;;;;;;14.67;13.67;;;;;22.33;42.43;101497.16;110265;1265;23010;-56
2022/04/12 07:06:11;;;;;;;;;14.67;14.00;;;;;22.39;42.44;101501.60;110241;1265;22223;-55
2022/04/12 07:08:39;;;;;;;;;15.67;14.00;;;;;22.42;42.53;101500.58;110204;1265;19767;-56
2022/04/12 07:11:07;;;;;;;;;13.00;13.00;;;;;22.42;42.60;101504.30;110207;1264;22399;-57
2022/04/12 07:13:34;;;;;;;;;14.00;13.67;;;;;22.43;42.63;101505.71;110176;1265;18706;-59
2022/04/12 07:16:02;;;;;;;;;14.33;14.00;;;;;22.44;42.68;101504.64;110309;1264;20881;-61
2022/04/12 07:18:30;;;;;;;;;14.33;13.33;;;;;22.44;42.63;101501.27;110259;1264;19052;-57
2022/04/12 07:20:57;;;;;;;;;15.33;15.33;;;;;22.47;42.42;101504.31;110250;1264;19140;-58
2022/04/12 07:23:24;;;;;;;;;14.00;14.00;;;;;22.47;42.37;101504.30;110244;1264;19522;-56
2022/04/12 07:25:52;;;;;;;;;14.00;13.00;;;;;22.48;42.25;101509.70;110227;1264;18767;-58
2022/04/12 07:28:19;;;;;;;;;13.00;13.00;;;;;22.45;42.31;101505.70;110289;1264;23791;-59
2022/04/12 07:30:47;;;;;;;;;15.00;14.67;;;;;22.44;42.28;101506.11;110270;1265;19679;-59
2022/04/12 07:33:14;;;;;;;;;15.00;14.00;;;;;22.44;42.35;101507.92;110266;1264;18746;-61
2022/04/12 07:35:41;;;;;;;;;15.67;14.00;;;;;22.46;42.19;101507.77;110134;1265;23798;-60
2022/04/12 07:38:10;;;;;;;;;13.67;13.00;;;;;22.47;42.12;101512.23;110167;1264;20109;-58
2022/04/12 07:40:38;;;;;;;;;16.33;16.33;;;;;22.35;42.29;101510.02;109885;1264;19345;-58
2022/04/12 07:43:05;;;;;;;;;18.00;16.33;;;;;22.24;41.14;101508.88;110133;1264;23513;-55
2022/04/12 07:45:33;;;;;;;;;17.50;17.00;;;;;22.20;40.93;101511.73;110151;1264;21443;-59
2022/04/12 07:48:01;;;;;;;;;17.33;15.33;;;;;22.12;40.87;101512.73;110144;1265;22210;-60
2022/04/12 07:50:28;;;;;;;;;18.50;17.50;;;;;22.07;40.03;101510.16;110262;1264;18783;-57
2022/04/12 07:52:55;;;;;;;;;22.00;19.50;;;;;22.04;39.18;101511.75;110219;1264;19530;-58
2022/04/12 07:55:23;;;;;;;;;18.00;17.00;;;;;22.01;37.79;101510.09;110242;1265;18724;-55
2022/04/12 07:57:50;;;;;;;;;23.00;18.67;;;;;22.12;37.58;101514.05;110220;1264;19172;-60
2022/04/12 08:00:17;;;;;;;;;21.00;17.50;;;;;22.15;37.70;101513.36;109932;1264;19465;-59
2022/04/12 08:02:44;;;;;;;;;21.00;18.00;;;;;22.08;37.85;101514.59;110069;1264;21073;-59
2022/04/12 08:05:12;;;;;;;;;46.33;38.33;;;;;22.03;37.72;101510.38;110082;1264;18873;-58
2022/04/12 08:07:44;;;;;;;;;99.33;75.33;;;;;22.06;37.25;101515.77;110197;1264;19659;-60
2022/04/12 08:10:11;;;;;;;;;174.33;132.67;;;;;22.03;36.97;101507.69;110227;1265;19932;-59
2022/04/12 08:12:39;;;;;;;;;111.50;87.00;;;;;21.98;36.12;101515.69;110143;1263;18961;-59
2022/04/12 08:15:06;;;;;;;;;149.00;113.50;;;;;21.87;34.19;101519.32;110168;1262;19535;-59
2022/04/12 08:17:33;;;;;;;;;80.67;60.67;;;;;21.76;32.98;101521.75;110204;1264;20519;-61
2022/04/12 08:20:01;;;;;;;;;94.50;66.00;;;;;21.70;32.82;101521.83;110045;1264;18986;-59
2022/04/12 08:22:28;;;;;;;;;89.67;64.00;;;;;21.66;33.17;101516.64;110144;1264;19738;-61
2022/04/12 08:24:55;;;;;;;;;60.00;47.67;;;;;21.60;32.24;101515.11;110185;1264;18766;-61
2022/04/12 08:27:23;;;;;;;;;62.00;46.67;;;;;21.53;31.80;101518.91;110254;1262;18825;-58
2022/04/12 08:29:50;;;;;;;;;62.67;44.00;;;;;21.54;31.74;101514.98;110233;1263;19563;-61
2022/04/12 08:32:17;;;;;;;;;64.00;49.00;;;;;21.53;31.49;101513.92;110199;1264;18750;-58
2022/04/12 08:34:45;;;;;;;;;39.33;35.33;;;;;21.48;31.64;101505.75;110257;1264;19071;-60
2022/04/12 08:37:12;;;;;;;;;40.50;35.00;;;;;21.44;30.71;101503.71;110299;1264;19535;-58
2022/04/12 08:39:39;;;;;;;;;40.33;36.67;;;;;21.30;30.64;101507.40;110262;1265;18815;-60
2022/04/12 08:42:07;;;;;;;;;39.00;33.33;;;;;21.04;30.52;101509.27;110210;1264;22211;-59
2022/04/12 08:44:34;;;;;;;;;32.00;28.00;;;;;20.85;30.13;101505.90;110223;1264;19559;-58
2022/04/12 08:47:01;;;;;;;;;31.00;27.00;;;;;20.60;29.75;101507.58;110170;1265;18749;-59
2022/04/12 08:49:29;;;;;;;;;31.00;24.00;;;;;20.63;29.97;101509.48;110301;1265;18785;-61
2022/04/12 08:51:56;;;;;;;;;37.33;30.00;;;;;20.89;31.08;101513.32;110261;1264;19452;-57
2022/04/12 08:54:23;;;;;;;;;30.33;25.00;;;;;21.15;30.54;101520.31;110221;1264;22721;-59
2022/04/12 08:56:51;;;;;;;;;24.33;20.67;;;;;21.39;30.91;101519.30;110179;1264;20303;-58
2022/04/12 08:59:18;;;;;;;;;23.00;21.33;;;;;21.55;30.88;101521.56;110173;1264;20503;-59
2022/04/12 09:01:46;;;;;;;;;28.67;22.00;;;;;21.69;31.47;101524.46;110201;1265;20087;-57
2022/04/12 09:04:14;;;;;;;;;25.33;21.67;;;;;21.85;32.14;101523.86;110239;1265;23090;-61
2022/04/12 09:06:41;;;;;;;;;26.00;22.00;;;;;21.96;32.75;101529.06;110194;1264;19506;-58
2022/04/12 09:09:08;;;;;;;;;29.00;22.00;;;;;22.01;33.32;101524.50;110235;1265;18818;-58
2022/04/12 09:11:36;;;;;;;;;25.00;20.00;;;;;22.07;33.89;101538.73;110218;1264;18831;-57
2022/04/12 09:14:04;;;;;;;;;22.50;22.00;;;;;22.09;34.31;101529.08;110258;1264;19438;-57
2022/04/12 09:16:31;;;;;;;;;26.33;22.00;;;;;22.14;34.79;101529.14;110246;1265;20144;-57
2022/04/12 09:18:58;;;;;;;;;24.67;21.67;;;;;22.15;35.13;101528.66;110194;1264;19576;-59
2022/04/12 09:21:27;;;;;;;;;27.67;22.33;;;;;22.17;35.43;101521.66;110299;1262;19680;-59
2022/04/12 09:23:54;;;;;;;;;24.33;22.33;;;;;22.18;35.50;101517.98;110216;1264;22347;-57
2022/04/12 09:26:22;;;;;;;;;23.50;18.50;;;;;22.20;35.81;101510.12;110224;1265;22267;-58
2022/04/12 09:28:49;;;;;;;;;19.33;17.67;;;;;22.14;35.76;101508.87;110158;1264;20183;-58
2022/04/12 09:31:16;;;;;;;;;24.00;20.00;;;;;22.04;35.87;101509.94;110254;1265;18817;-58
2022/04/12 09:33:44;;;;;;;;;18.00;16.00;;;;;21.86;34.97;101510.13;110180;1264;22820;-57
2022/04/12 09:36:11;;;;;;;;;16.67;13.00;;;;;21.64;32.59;101516.80;110238;1264;20061;-58
2022/04/12 09:38:38;;;;;;;;;13.67;12.67;;;;;21.45;31.26;101513.05;110255;1264;18748;-59
2022/04/12 09:41:06;;;;;;;;;14.67;14.00;;;;;21.37;31.29;101518.27;110233;1264;19395;-59
2022/04/12 09:43:33;;;;;;;;;14.00;13.00;;;;;21.36;30.75;101519.96;110284;1264;21014;-63
2022/04/12 09:46:01;;;;;;;;;14.00;13.00;;;;;21.38;30.35;101517.86;110295;1263;23516;-61
2022/04/12 09:48:28;;;;;;;;;14.67;13.33;;;;;21.37;31.16;101518.30;110256;1264;18971;-60
2022/04/12 09:50:55;;;;;;;;;12.00;11.33;;;;;21.37;31.48;101518.81;110218;1264;19531;-60
2022/04/12 09:53:23;;;;;;;;;12.33;11.33;;;;;21.33;30.90;101516.09;110210;1264;18662;-58
2022/04/12 09:55:50;;;;;;;;;9.67;9.00;;;;;21.23;29.77;101523.93;110221;1264;21992;-59
2022/04/12 09:58:18;;;;;;;;;10.00;9.00;;;;;21.17;29.72;101520.36;110315;1264;19493;-61
2022/04/12 10:00:47;;;;;;;;;10.67;10.00;;;;;21.14;30.31;101520.30;110227;1263;24311;-58
2022/04/12 10:03:14;;;;;;;;;12.67;11.33;;;;;21.26;30.64;101525.77;110226;1264;22156;-58
2022/04/12 10:05:42;;;;;;;;;13.00;12.00;;;;;21.28;30.12;101516.42;110220;1264;19565;-59
2022/04/12 10:08:11;;;;;;;;;10.00;9.33;;;;;21.24;30.08;101520.54;110233;1265;22311;-60
2022/04/12 10:10:39;;;;;;;;;9.00;9.00;;;;;21.24;30.16;101517.55;110270;1265;20442;-55
2022/04/12 10:13:06;;;;;;;;;9.50;9.00;;;;;21.28;29.18;101517.04;110209;1265;19517;-60
2022/04/12 10:15:34;;;;;;;;;8.67;8.67;;;;;21.20;28.89;101516.36;110228;1264;19139;-59
2022/04/12 10:18:01;;;;;;;;;8.00;8.00;;;;;21.23;28.92;101512.67;110251;1264;22893;-58
2022/04/12 10:20:28;;;;;;;;;8.33;8.33;;;;;21.26;28.35;101509.55;110246;1264;19554;-60
2022/04/12 10:22:56;;;;;;;;;9.00;8.00;;;;;21.29;28.87;101516.93;110154;1264;18447;-61
2022/04/12 10:25:23;;;;;;;;;8.00;8.00;;;;;21.37;28.91;101513.69;110284;1264;18760;-59
2022/04/12 10:27:50;;;;;;;;;9.00;9.00;;;;;21.47;29.34;101507.74;110229;1264;19390;-58
2022/04/12 10:30:18;;;;;;;;;10.00;8.67;;;;;21.53;29.56;101506.32;110196;1264;23315;-58
2022/04/12 10:32:45;;;;;;;;;6.67;6.67;;;;;21.63;29.55;101505.15;110223;1264;21125;-61
2022/04/12 10:35:12;;;;;;;;;6.67;6.00;;;;;21.69;29.99;101505.80;110156;1264;19655;-57
2022/04/12 10:37:40;;;;;;;;;6.67;6.67;;;;;21.74;30.56;101504.27;110290;1264;19999;-58
2022/04/12 10:40:07;;;;;;;;;12.67;10.00;;;;;21.80;31.03;101504.67;110217;1265;22054;-53
2022/04/12 10:42:36;;;;;;;;;9.67;8.00;;;;;21.80;31.09;101503.98;110197;1264;19541;-53
2022/04/12 10:45:03;;;;;;;;;8.00;7.33;;;;;21.77;31.28;101505.02;110173;1264;20126;-55
2022/04/12 10:47:30;;;;;;;;;12.00;9.00;;;;;21.80;32.07;101509.63;110256;1262;18856;-56
2022/04/12 10:49:58;;;;;;;;;8.00;8.00;;;;;21.60;31.12;101508.87;110215;1264;22297;-58
2022/04/12 10:52:25;;;;;;;;;7.67;7.67;;;;;21.40;31.45;101507.61;110163;1265;22246;-58
2022/04/12 10:54:53;;;;;;;;;8.00;8.00;;;;;21.32;30.27;101512.09;110240;1264;18841;-57
2022/04/12 10:57:20;;;;;;;;;8.33;8.00;;;;;21.18;30.11;101511.85;110197;1264;19958;-64
2022/04/12 10:59:47;;;;;;;;;8.50;8.50;;;;;21.16;29.45;101513.33;110255;1264;18743;-58
2022/04/12 11:02:15;;;;;;;;;11.33;9.00;;;;;20.98;28.52;101512.84;110246;1265;18895;-58
2022/04/12 11:04:42;;;;;;;;;12.00;9.00;;;;;20.95;28.51;101505.20;110258;1264;19885;-60